Time;durP1;ratioP1;P1;durP2;ratioP2;P2;SDS_P1;SDS_P2;PMS_P1;PMS_P2;Temp;Humidity;BMP_temperature;BMP_pressure;BME280_temperature;BME280_humidity;BME280_pressure;Samples;Min_cycle;Max_cycle;Signal;HPM_P1;HPM_P2
2022/09/15 00:00:41;;;;;;;9.40;4.10;;;15.30;99.90;;;;;;4146273;28;20052;-65
2022/09/15 00:02:43;;;;;;;6.30;4.22;;;15.30;99.90;;;;;;4146856;28;20528;-64
2022/09/15 00:04:44;;;;;;;5.43;4.05;;;15.30;99.90;;;;;;4145525;28;20108;-65
2022/09/15 00:06:45;;;;;;;8.10;4.28;;;15.30;99.90;;;;;;4146531;28;20437;-64
2022/09/15 00:08:47;;;;;;;7.97;4.28;;;15.30;99.90;;;;;;4145592;28;20456;-64
2022/09/15 00:10:50;;;;;;;7.28;3.80;;;15.30;99.90;;;;;;4146925;28;20092;-64
2022/09/15 00:12:51;;;;;;;5.43;4.00;;;15.30;99.90;;;;;;4145576;28;20076;-65
2022/09/15 00:14:53;;;;;;;9.13;4.75;;;15.30;99.90;;;;;;4146645;28;20099;-63
2022/09/15 00:16:54;;;;;;;7.65;4.35;;;15.30;99.90;;;;;;4145519;28;20430;-64
2022/09/15 00:18:55;;;;;;;8.90;4.75;;;15.20;99.90;;;;;;4146959;28;20050;-65
2022/09/15 00:20:57;;;;;;;7.70;4.75;;;15.20;99.90;;;;;;4145949;28;20046;-68
2022/09/15 00:22:58;;;;;;;7.50;4.70;;;15.20;99.90;;;;;;4146391;28;20029;-65
2022/09/15 00:24:59;;;;;;;7.95;4.45;;;15.10;99.90;;;;;;4145726;28;20038;-64
2022/09/15 00:27:00;;;;;;;7.95;4.88;;;15.00;99.90;;;;;;4146393;28;20096;-64
2022/09/15 00:29:02;;;;;;;6.53;4.97;;;15.00;99.90;;;;;;4145669;28;20025;-65
2022/09/15 00:31:06;;;;;;;9.25;5.07;;;14.90;99.90;;;;;;4145414;28;20544;-63
2022/09/15 00:33:08;;;;;;;7.35;5.50;;;14.80;99.90;;;;;;4145831;28;20061;-64
2022/09/15 00:35:09;;;;;;;10.23;5.45;;;14.80;99.90;;;;;;4144590;28;20572;-65
2022/09/15 00:37:10;;;;;;;6.80;4.50;;;14.80;99.90;;;;;;4145269;28;20076;-64
2022/09/15 00:39:12;;;;;;;16.17;5.25;;;14.80;99.90;;;;;;4144447;28;20438;-65
2022/09/15 00:41:15;;;;;;;9.45;5.60;;;14.80;99.90;;;;;;4146312;28;20467;-64
2022/09/15 00:43:19;;;;;;;11.10;6.38;;;14.80;99.90;;;;;;4145224;28;20100;-64
2022/09/15 00:45:20;;;;;;;10.35;5.60;;;14.70;99.90;;;;;;4146366;28;20038;-66
2022/09/15 00:47:26;;;;;;;12.27;7.55;;;14.70;99.90;;;;;;4144671;28;20029;-64
2022/09/15 00:49:31;;;;;;;11.20;5.90;;;14.70;99.90;;;;;;4146206;28;20430;-65
2022/09/15 00:51:56;;;;;;;7.10;4.65;;;14.60;99.90;;;;;;4145246;28;20402;-66
2022/09/15 00:54:01;;;;;;;7.78;5.78;;;14.60;99.90;;;;;;4146158;28;20046;-66
2022/09/15 00:56:06;;;;;;;9.18;5.28;;;14.60;99.90;;;;;;4145020;28;20124;-65
2022/09/15 00:58:15;;;;;;;10.80;5.85;;;14.50;99.90;;;;;;4146124;28;20441;-66
2022/09/15 01:00:20;;;;;;;14.70;5.80;;;14.50;99.90;;;;;;4144029;28;20592;-65
2022/09/15 01:02:24;;;;;;;11.23;5.65;;;14.50;99.90;;;;;;4145923;28;20033;-65
2022/09/15 01:04:26;;;;;;;13.35;6.28;;;14.50;99.90;;;;;;4144724;28;20499;-64
2022/09/15 01:06:39;;;;;;;8.18;5.60;;;14.50;99.90;;;;;;4146203;28;20054;-65
2022/09/15 01:08:46;;;;;;;10.43;5.68;;;14.50;99.90;;;;;;4144858;28;20543;-65
2022/09/15 01:10:48;;;;;;;13.38;5.70;;;14.50;99.90;;;;;;4145966;28;20089;-64
2022/09/15 01:12:49;;;;;;;10.77;5.10;;;14.40;99.90;;;;;;4144967;28;20441;-64
2022/09/15 01:14:50;;;;;;;13.43;5.50;;;14.50;99.90;;;;;;4145752;28;20060;-65
2022/09/15 01:17:10;;;;;;;11.90;6.68;;;14.50;99.90;;;;;;4144465;28;20030;-64
2022/09/15 01:19:40;;;;;;;15.10;6.00;;;14.50;99.90;;;;;;4145804;28;20433;-66
2022/09/15 01:21:47;;;;;;;8.57;5.72;;;14.40;99.90;;;;;;4145001;28;20076;-64
2022/09/15 01:23:57;;;;;;;9.75;6.15;;;14.40;99.90;;;;;;4145741;28;20038;-65
2022/09/15 01:26:13;;;;;;;9.50;5.85;;;14.40;99.90;;;;;;4144689;28;20083;-65
2022/09/15 01:28:23;;;;;;;9.88;6.28;;;14.40;99.90;;;;;;4145745;28;20577;-64
2022/09/15 01:30:25;;;;;;;12.52;5.97;;;14.40;99.90;;;;;;4144272;28;20034;-65
2022/09/15 01:33:06;;;;;;;12.02;5.63;;;14.40;99.90;;;;;;4145887;28;20549;-65
2022/09/15 01:35:26;;;;;;;8.85;6.25;;;14.40;99.90;;;;;;4141149;28;20058;-65
2022/09/15 01:37:33;;;;;;;9.65;5.55;;;14.40;99.90;;;;;;4145590;28;20111;-65
2022/09/15 01:39:38;;;;;;;7.78;5.20;;;14.40;99.90;;;;;;4143810;28;20498;-67
2022/09/15 01:41:50;;;;;;;7.15;5.00;;;14.40;99.90;;;;;;4144682;28;20502;-64
2022/09/15 01:44:05;;;;;;;9.27;5.35;;;14.50;99.90;;;;;;4144334;28;20478;-65
2022/09/15 01:46:07;;;;;;;14.05;5.78;;;14.50;99.90;;;;;;4138649;28;20100;-65
2022/09/15 01:48:10;;;;;;;9.25;5.28;;;14.50;99.90;;;;;;4147867;28;20351;-64
2022/09/15 01:50:17;;;;;;;9.68;5.85;;;14.50;99.90;;;;;;4149049;28;20519;-64
2022/09/15 01:52:21;;;;;;;7.47;5.30;;;14.50;99.90;;;;;;4147818;28;20054;-67
2022/09/15 01:54:28;;;;;;;9.95;6.03;;;14.50;99.90;;;;;;4148857;28;20030;-68
2022/09/15 01:56:29;;;;;;;10.50;5.68;;;14.50;99.90;;;;;;4146373;28;20473;-66
2022/09/15 01:58:32;;;;;;;9.10;5.88;;;14.50;99.90;;;;;;4148687;28;20038;-66
2022/09/15 02:00:38;;;;;;;10.32;5.90;;;14.40;99.90;;;;;;4147530;28;20081;-65
2022/09/15 02:02:56;;;;;;;10.95;6.30;;;14.50;99.90;;;;;;4148755;28;20080;-65
2022/09/15 02:05:03;;;;;;;12.98;6.90;;;14.50;99.90;;;;;;4147351;28;20104;-65
2022/09/15 02:07:34;;;;;;;11.73;6.45;;;14.50;99.90;;;;;;4148587;28;20363;-65
2022/09/15 02:09:45;;;;;;;8.85;5.90;;;14.50;99.90;;;;;;4147313;28;20030;-64
2022/09/15 02:12:18;;;;;;;11.50;6.57;;;14.50;99.90;;;;;;4148520;28;20466;-65
2022/09/15 02:14:46;;;;;;;11.63;6.10;;;14.50;99.90;;;;;;4147402;28;20433;-65
2022/09/15 02:16:52;;;;;;;10.13;5.28;;;14.40;99.90;;;;;;4148031;28;20536;-64
2022/09/15 02:19:18;;;;;;;10.80;5.78;;;14.50;99.90;;;;;;4147864;28;20058;-64
2022/09/15 02:21:28;;;;;;;13.88;6.28;;;14.40;99.90;;;;;;4148144;28;20026;-64
2022/09/15 02:23:35;;;;;;;13.35;6.53;;;14.50;99.90;;;;;;4147915;28;20041;-64
2022/09/15 02:25:44;;;;;;;10.35;5.40;;;14.50;99.90;;;;;;4147999;28;20080;-65
2022/09/15 02:27:51;;;;;;;10.00;6.30;;;14.50;99.90;;;;;;4147851;28;20429;-66
2022/09/15 02:29:56;;;;;;;10.80;6.55;;;14.50;99.90;;;;;;4147637;28;20026;-64
2022/09/15 02:32:01;;;;;;;12.30;7.25;;;14.50;99.90;;;;;;4146905;28;20033;-65
2022/09/15 02:34:09;;;;;;;12.52;6.20;;;14.60;99.90;;;;;;4146706;28;20038;-65
2022/09/15 02:36:14;;;;;;;10.15;6.35;;;14.60;99.90;;;;;;4147297;28;20092;-65
2022/09/15 02:38:15;;;;;;;11.60;6.07;;;14.70;99.90;;;;;;4148049;28;20026;-64
2022/09/15 02:40:17;;;;;;;8.70;5.82;;;14.70;99.90;;;;;;4147007;28;20438;-64
2022/09/15 02:42:38;;;;;;;12.15;5.93;;;14.70;99.90;;;;;;4147670;28;20084;-64
2022/09/15 02:44:40;;;;;;;10.70;6.07;;;14.70;99.90;;;;;;4145989;28;20034;-64
2022/09/15 02:46:42;;;;;;;10.38;5.30;;;14.70;99.90;;;;;;4147906;28;20084;-64
2022/09/15 02:48:43;;;;;;;9.73;6.32;;;14.70;99.90;;;;;;4146939;28;20034;-64
2022/09/15 02:50:44;;;;;;;11.00;6.65;;;14.70;99.90;;;;;;4147928;28;20084;-65
2022/09/15 02:52:46;;;;;;;11.40;6.30;;;14.80;99.90;;;;;;4146855;28;20499;-66
2022/09/15 02:54:47;;;;;;;9.93;6.43;;;14.80;99.90;;;;;;4147824;28;20026;-64
2022/09/15 02:56:49;;;;;;;10.98;5.93;;;14.80;99.90;;;;;;4146584;28;20046;-65
2022/09/15 02:58:50;;;;;;;9.45;6.10;;;14.80;99.90;;;;;;4147124;28;20037;-64
2022/09/15 03:00:51;;;;;;;11.45;6.43;;;14.80;99.90;;;;;;4146688;28;20072;-64
2022/09/15 03:02:54;;;;;;;9.02;6.75;;;14.90;99.90;;;;;;4147875;28;20042;-65
2022/09/15 03:04:55;;;;;;;10.20;6.55;;;14.90;99.90;;;;;;4146269;28;20478;-65
2022/09/15 03:06:56;;;;;;;12.02;6.60;;;14.90;99.90;;;;;;4147086;28;20033;-64
2022/09/15 03:08:59;;;;;;;10.88;6.47;;;14.90;99.90;;;;;;4146848;28;20025;-65
2022/09/15 03:11:00;;;;;;;8.27;6.55;;;15.00;99.90;;;;;;4146916;28;20466;-65
2022/09/15 03:13:01;;;;;;;16.83;7.30;;;14.90;99.90;;;;;;4147391;28;20080;-67
2022/09/15 03:15:03;;;;;;;8.48;6.03;;;14.90;99.90;;;;;;4146598;28;20042;-64
2022/09/15 03:17:04;;;;;;;12.35;7.32;;;14.90;99.90;;;;;;4131060;28;20073;-64
2022/09/15 03:19:05;;;;;;;10.85;6.55;;;14.90;99.90;;;;;;4130243;28;20384;-65
2022/09/15 03:21:10;;;;;;;12.93;6.53;;;14.90;99.90;;;;;;4131690;28;20026;-65
2022/09/15 03:23:11;;;;;;;12.50;6.32;;;14.90;99.90;;;;;;4130280;28;20093;-67
2022/09/15 03:25:12;;;;;;;11.50;6.53;;;14.90;99.90;;;;;;4131157;28;20545;-65
2022/09/15 03:27:13;;;;;;;8.48;5.32;;;14.90;99.90;;;;;;4128832;28;20603;-66
2022/09/15 03:29:15;;;;;;;9.98;6.38;;;14.80;99.90;;;;;;4131216;28;20085;-64
2022/09/15 03:31:16;;;;;;;7.85;5.47;;;14.70;99.90;;;;;;4141740;28;20030;-65
2022/09/15 03:33:17;;;;;;;9.00;5.53;;;14.60;99.90;;;;;;4145574;28;20069;-64
2022/09/15 03:35:18;;;;;;;10.85;5.30;;;14.50;99.90;;;;;;4145925;28;20026;-64
2022/09/15 03:37:19;;;;;;;11.80;6.00;;;14.50;99.90;;;;;;4146872;28;20033;-64
2022/09/15 03:39:20;;;;;;;7.55;5.28;;;14.50;99.90;;;;;;4146193;28;20022;-65
2022/09/15 03:41:22;;;;;;;8.75;4.80;;;14.50;99.90;;;;;;4146225;28;20430;-65
2022/09/15 03:43:23;;;;;;;8.02;5.40;;;14.60;99.90;;;;;;4145969;28;20055;-65
2022/09/15 03:45:24;;;;;;;10.00;5.80;;;14.60;99.90;;;;;;4145942;28;20048;-64
2022/09/15 03:47:25;;;;;;;11.93;6.07;;;14.60;99.90;;;;;;4146137;28;20064;-64
2022/09/15 03:49:26;;;;;;;10.02;6.50;;;14.60;99.90;;;;;;4144306;28;20038;-64
2022/09/15 03:51:27;;;;;;;7.95;5.78;;;14.60;99.90;;;;;;4147241;28;20034;-64
2022/09/15 03:53:34;;;;;;;10.27;6.03;;;14.70;99.90;;;;;;4145487;28;20100;-66
2022/09/15 03:55:35;;;;;;;9.85;6.18;;;14.80;99.90;;;;;;4146687;28;20029;-66
2022/09/15 03:57:36;;;;;;;10.50;6.78;;;14.80;99.90;;;;;;4145388;28;20026;-67
2022/09/15 03:59:37;;;;;;;10.80;6.97;;;14.80;99.90;;;;;;4146756;28;20021;-67
2022/09/15 04:01:38;;;;;;;11.77;7.53;;;14.80;99.90;;;;;;4145379;28;20026;-65
2022/09/15 04:03:39;;;;;;;10.45;6.72;;;14.90;99.90;;;;;;4146655;28;20038;-65
2022/09/15 04:05:41;;;;;;;18.33;8.02;;;14.90;99.90;;;;;;4145349;28;20126;-65
2022/09/15 04:07:42;;;;;;;12.40;8.48;;;14.90;99.90;;;;;;4145790;28;20638;-65
2022/09/15 04:09:43;;;;;;;19.33;8.05;;;14.90;99.90;;;;;;4144182;28;20434;-65
2022/09/15 04:11:44;;;;;;;11.95;6.75;;;15.00;99.90;;;;;;4145522;28;20083;-66
2022/09/15 04:13:46;;;;;;;8.30;6.32;;;15.00;99.90;;;;;;4145378;28;20026;-64
2022/09/15 04:15:59;;;;;;;14.30;6.18;;;15.00;99.90;;;;;;4145212;28;20131;-66
2022/09/15 04:18:01;;;;;;;22.95;9.35;;;15.10;99.90;;;;;;4144844;28;20449;-65
2022/09/15 04:20:02;;;;;;;18.73;8.80;;;15.10;99.90;;;;;;4141697;28;20108;-66
2022/09/15 04:22:03;;;;;;;16.77;8.13;;;15.10;99.90;;;;;;4145464;28;20583;-65
2022/09/15 04:24:04;;;;;;;24.50;9.15;;;15.20;99.90;;;;;;4144860;28;20057;-64
2022/09/15 04:26:12;;;;;;;22.88;9.43;;;15.20;99.90;;;;;;4145845;28;20056;-65
2022/09/15 04:28:13;;;;;;;20.40;9.27;;;15.20;99.90;;;;;;4148245;28;20059;-67
2022/09/15 04:30:15;;;;;;;23.77;11.02;;;15.10;99.90;;;;;;4162462;28;20106;-64
2022/09/15 04:32:16;;;;;;;19.33;10.07;;;15.10;99.90;;;;;;4160959;28;20033;-66
2022/09/15 04:34:17;;;;;;;19.50;9.88;;;15.10;99.90;;;;;;4147380;28;21663;-65
2022/09/15 04:36:21;;;;;;;23.25;10.15;;;15.10;99.90;;;;;;4144503;28;20038;-64
2022/09/15 04:38:22;;;;;;;22.77;9.68;;;15.10;99.90;;;;;;4145891;28;20482;-64
2022/09/15 04:40:24;;;;;;;18.67;9.27;;;15.20;99.90;;;;;;4138739;28;20479;-64
2022/09/15 04:42:25;;;;;;;21.70;10.52;;;15.20;99.90;;;;;;4142059;28;20499;-64
2022/09/15 04:44:27;;;;;;;21.85;9.50;;;15.20;99.90;;;;;;4142574;28;20026;-64
2022/09/15 04:46:29;;;;;;;23.67;9.50;;;15.30;99.90;;;;;;4141536;28;20034;-64
2022/09/15 04:48:31;;;;;;;19.20;8.90;;;15.20;99.90;;;;;;4142736;28;20058;-64
2022/09/15 04:50:32;;;;;;;19.23;8.70;;;15.20;99.90;;;;;;4140893;28;20096;-64
2022/09/15 04:52:33;;;;;;;20.20;10.00;;;15.30;99.90;;;;;;4142298;28;20053;-64
2022/09/15 04:54:34;;;;;;;18.33;9.23;;;15.30;99.90;;;;;;4141404;28;20026;-64
2022/09/15 04:56:38;;;;;;;16.85;8.30;;;15.40;99.90;;;;;;4142218;28;20576;-64
2022/09/15 04:58:44;;;;;;;15.75;7.55;;;15.40;99.90;;;;;;4140231;28;20486;-64
2022/09/15 05:00:45;;;;;;;16.30;8.25;;;15.40;99.90;;;;;;4141886;28;20364;-63
2022/09/15 05:02:46;;;;;;;19.65;8.23;;;15.40;99.90;;;;;;4140242;28;20127;-64
2022/09/15 05:04:50;;;;;;;17.95;8.00;;;15.50;99.90;;;;;;4142738;28;20479;-65
2022/09/15 05:06:51;;;;;;;15.70;6.95;;;15.50;99.90;;;;;;4144066;28;20406;-61
2022/09/15 05:08:56;;;;;;;14.30;7.15;;;15.60;99.90;;;;;;4144740;28;20029;-65
2022/09/15 05:11:03;;;;;;;16.40;7.70;;;15.60;99.90;;;;;;4144283;28;20026;-64
2022/09/15 05:13:04;;;;;;;19.27;7.82;;;15.60;99.90;;;;;;4145508;28;20397;-64
2022/09/15 05:15:06;;;;;;;14.50;8.10;;;15.60;99.90;;;;;;4144015;28;20096;-65
2022/09/15 05:17:07;;;;;;;16.23;8.65;;;15.60;99.90;;;;;;4145252;28;20058;-64
2022/09/15 05:19:10;;;;;;;18.10;8.35;;;15.70;99.90;;;;;;4144167;28;20037;-63
2022/09/15 05:21:13;;;;;;;29.40;10.20;;;15.70;99.90;;;;;;4144567;28;20112;-67
2022/09/15 05:23:14;;;;;;;35.85;10.20;;;15.70;99.90;;;;;;4144692;28;20096;-64
2022/09/15 05:25:15;;;;;;;25.83;9.75;;;15.80;99.90;;;;;;4144771;28;20099;-65
2022/09/15 05:27:17;;;;;;;26.25;7.78;;;15.70;99.90;;;;;;4144919;28;20026;-64
2022/09/15 05:29:18;;;;;;;17.83;9.35;;;15.70;99.90;;;;;;4144662;28;20096;-64
2022/09/15 05:31:25;;;;;;;22.70;10.63;;;15.60;99.90;;;;;;4145050;28;20030;-65
2022/09/15 05:33:26;;;;;;;32.20;11.10;;;15.60;99.90;;;;;;4144100;28;20022;-64
2022/09/15 05:35:27;;;;;;;32.08;12.88;;;15.60;99.90;;;;;;4145028;28;20084;-67
2022/09/15 05:37:28;;;;;;;30.00;14.82;;;15.60;99.90;;;;;;4143909;28;20046;-63
2022/09/15 05:39:29;;;;;;;40.17;14.27;;;15.60;99.90;;;;;;4145333;28;20046;-64
2022/09/15 05:41:31;;;;;;;37.00;13.68;;;15.70;99.90;;;;;;4143853;28;20034;-64
2022/09/15 05:43:34;;;;;;;32.78;14.13;;;15.70;99.90;;;;;;4145053;28;20080;-63
2022/09/15 05:45:35;;;;;;;28.92;13.23;;;15.70;99.90;;;;;;4143887;28;20360;-64
2022/09/15 05:47:36;;;;;;;38.42;14.07;;;15.80;99.90;;;;;;4145019;28;20034;-65
2022/09/15 05:49:37;;;;;;;25.42;12.10;;;15.80;99.90;;;;;;4143797;28;20096;-64
2022/09/15 05:51:39;;;;;;;26.48;13.13;;;15.80;99.90;;;;;;4145108;28;20042;-67
2022/09/15 05:53:40;;;;;;;35.10;15.18;;;15.90;99.90;;;;;;4144269;28;20084;-65
2022/09/15 05:55:41;;;;;;;41.08;16.40;;;15.90;99.90;;;;;;4144958;28;20100;-65
2022/09/15 05:57:43;;;;;;;39.38;16.55;;;16.00;99.90;;;;;;4144252;28;20041;-65
2022/09/15 05:59:44;;;;;;;30.27;11.35;;;16.00;99.90;;;;;;4144455;28;20433;-64
2022/09/15 06:01:45;;;;;;;24.30;9.32;;;16.10;99.90;;;;;;4144278;28;20026;-64
2022/09/15 06:03:47;;;;;;;31.08;10.95;;;16.10;99.90;;;;;;4144117;28;20034;-66
2022/09/15 06:05:57;;;;;;;35.72;11.82;;;16.20;99.90;;;;;;4144717;28;20053;-67
2022/09/15 06:07:58;;;;;;;33.13;12.13;;;16.30;99.90;;;;;;4142661;28;20584;-64
2022/09/15 06:09:59;;;;;;;40.15;14.02;;;16.30;99.90;;;;;;4144916;28;20034;-64
2022/09/15 06:12:00;;;;;;;43.53;16.48;;;16.30;99.90;;;;;;4143756;28;21056;-65
2022/09/15 06:14:02;;;;;;;51.67;14.98;;;16.40;99.90;;;;;;4144831;28;20084;-65
2022/09/15 06:16:11;;;;;;;52.50;15.43;;;16.40;99.90;;;;;;4144119;28;20026;-63
2022/09/15 06:18:12;;;;;;;57.10;15.63;;;16.50;99.90;;;;;;4144850;28;20030;-63
2022/09/15 06:20:13;;;;;;;44.90;13.95;;;16.60;99.90;;;;;;4143700;28;20029;-62
2022/09/15 06:22:15;;;;;;;39.47;13.77;;;16.60;99.90;;;;;;4139490;28;20103;-64
2022/09/15 06:24:16;;;;;;;47.60;14.60;;;16.70;99.90;;;;;;4141448;28;20042;-66
2022/09/15 06:26:18;;;;;;;47.95;14.50;;;16.70;99.90;;;;;;4143136;28;20030;-66
2022/09/15 06:28:20;;;;;;;41.92;13.48;;;16.80;99.90;;;;;;4143449;28;20042;-67
2022/09/15 06:30:21;;;;;;;40.55;15.23;;;16.90;99.90;;;;;;4144155;28;20068;-65
2022/09/15 06:32:22;;;;;;;46.63;12.38;;;17.00;99.90;;;;;;4143617;28;20084;-65
2022/09/15 06:34:23;;;;;;;42.33;14.60;;;17.00;99.90;;;;;;4144004;28;20023;-66
2022/09/15 06:36:27;;;;;;;43.47;15.88;;;17.00;99.90;;;;;;4146797;28;20030;-63
2022/09/15 06:38:28;;;;;;;39.70;18.17;;;17.10;99.90;;;;;;4146859;28;20026;-65
2022/09/15 06:40:29;;;;;;;43.85;18.92;;;17.20;99.90;;;;;;4154440;28;20130;-66
2022/09/15 06:42:31;;;;;;;34.40;14.13;;;17.30;99.90;;;;;;4163251;28;20037;-65
2022/09/15 06:44:32;;;;;;;49.67;14.65;;;17.40;99.90;;;;;;4159502;28;20582;-65
2022/09/15 06:46:35;;;;;;;46.80;14.23;;;17.50;99.90;;;;;;4146593;28;20084;-66
2022/09/15 06:48:37;;;;;;;35.72;14.35;;;17.50;99.90;;;;;;4147710;28;20026;-65
2022/09/15 06:50:39;;;;;;;39.83;13.20;;;17.60;99.90;;;;;;4161187;28;20355;-65
2022/09/15 06:52:42;;;;;;;32.58;13.20;;;17.70;99.90;;;;;;4164030;28;20049;-66
2022/09/15 06:54:43;;;;;;;36.65;13.88;;;17.90;99.90;;;;;;4161576;28;20088;-65
2022/09/15 06:56:44;;;;;;;41.33;14.23;;;17.90;99.90;;;;;;4163813;28;20029;-67
2022/09/15 06:58:49;;;;;;;43.30;13.90;;;18.10;99.90;;;;;;4162456;28;20088;-66
2022/09/15 07:00:50;;;;;;;39.63;13.77;;;18.40;99.90;;;;;;4164052;28;20033;-65
2022/09/15 07:02:51;;;;;;;45.42;14.05;;;18.70;99.90;;;;;;4162889;28;20378;-64
2022/09/15 07:04:52;;;;;;;47.10;13.45;;;18.70;99.90;;;;;;4163964;28;20038;-64
2022/09/15 07:06:53;;;;;;;36.15;12.68;;;18.60;99.90;;;;;;4163097;28;20075;-64
2022/09/15 07:08:55;;;;;;;39.38;11.52;;;18.50;99.90;;;;;;4151934;28;20026;-64
2022/09/15 07:10:57;;;;;;;31.45;11.30;;;18.50;99.90;;;;;;4145266;28;20034;-63
2022/09/15 07:13:00;;;;;;;28.30;10.50;;;18.50;99.90;;;;;;4146253;28;20540;-63
2022/09/15 07:15:01;;;;;;;31.33;10.48;;;18.30;99.90;;;;;;4147198;28;20022;-65
2022/09/15 07:17:02;;;;;;;22.90;11.15;;;18.20;99.90;;;;;;4145825;28;20050;-64
2022/09/15 07:19:04;;;;;;;26.38;10.70;;;18.10;99.90;;;;;;4146160;28;20029;-65
2022/09/15 07:21:08;;;;;;;28.83;10.77;;;18.00;99.90;;;;;;4144867;28;20502;-63
2022/09/15 07:23:09;;;;;;;19.73;10.30;;;17.90;99.90;;;;;;4162583;28;20026;-65
2022/09/15 07:25:10;;;;;;;35.20;11.50;;;17.90;99.90;;;;;;4161870;28;20033;-63
2022/09/15 07:27:11;;;;;;;29.00;11.93;;;17.90;99.90;;;;;;4148479;28;20026;-63
2022/09/15 07:29:12;;;;;;;23.23;10.55;;;17.90;99.90;;;;;;4145866;28;20034;-63
2022/09/15 07:31:16;;;;;;;31.67;11.38;;;17.90;99.90;;;;;;4147170;28;20026;-63
2022/09/15 07:33:17;;;;;;;32.05;12.32;;;17.90;99.90;;;;;;4145952;28;20510;-63
2022/09/15 07:35:20;;;;;;;34.80;12.07;;;18.00;99.90;;;;;;4146180;28;20029;-64
2022/09/15 07:37:21;;;;;;;32.10;11.95;;;18.10;99.90;;;;;;4145240;28;20084;-63
2022/09/15 07:39:23;;;;;;;45.22;12.05;;;18.10;99.90;;;;;;4146219;28;20068;-63
2022/09/15 07:41:26;;;;;;;39.13;11.45;;;18.20;99.90;;;;;;4145970;28;20026;-63
2022/09/15 07:43:28;;;;;;;30.20;10.20;;;18.30;99.90;;;;;;4145858;28;20096;-63
2022/09/15 07:45:29;;;;;;;28.70;9.27;;;18.20;99.90;;;;;;4146165;28;20034;-64
2022/09/15 07:47:30;;;;;;;19.35;9.32;;;18.20;99.90;;;;;;4145586;28;20421;-63
2022/09/15 07:49:32;;;;;;;22.83;8.65;;;18.20;99.90;;;;;;4146583;28;20490;-64
2022/09/15 07:51:33;;;;;;;22.70;10.48;;;18.10;99.90;;;;;;4145443;28;20018;-63
2022/09/15 07:53:34;;;;;;;17.58;8.20;;;18.10;99.90;;;;;;4147018;28;20072;-63
2022/09/15 07:55:35;;;;;;;25.02;9.30;;;18.00;99.90;;;;;;4145496;28;20437;-63
2022/09/15 07:57:36;;;;;;;14.70;8.52;;;17.90;99.90;;;;;;4146413;28;20069;-64
2022/09/15 07:59:37;;;;;;;14.38;8.15;;;17.90;99.90;;;;;;4145567;28;21092;-63
2022/09/15 08:01:38;;;;;;;23.80;8.32;;;18.00;99.90;;;;;;4146734;28;20096;-64
2022/09/15 08:03:41;;;;;;;18.27;9.07;;;18.10;99.90;;;;;;4144024;28;20041;-62
2022/09/15 08:05:42;;;;;;;19.73;8.57;;;18.20;99.90;;;;;;4146299;28;20030;-64
2022/09/15 08:07:43;;;;;;;22.63;9.63;;;18.20;99.90;;;;;;4144146;28;20064;-64
2022/09/15 08:09:44;;;;;;;15.63;8.35;;;18.30;99.90;;;;;;4146119;28;20426;-63
2022/09/15 08:11:46;;;;;;;20.48;8.60;;;18.30;99.90;;;;;;4145112;28;20025;-64
2022/09/15 08:13:48;;;;;;;17.10;8.00;;;18.30;99.90;;;;;;4143474;28;20092;-64
2022/09/15 08:15:51;;;;;;;24.45;8.52;;;18.50;99.90;;;;;;4145048;28;20026;-63
2022/09/15 08:17:52;;;;;;;13.77;7.50;;;18.50;99.90;;;;;;4144474;28;20057;-65
2022/09/15 08:19:53;;;;;;;21.15;7.97;;;18.50;99.90;;;;;;4145382;28;20092;-64
2022/09/15 08:21:54;;;;;;;22.52;8.40;;;18.40;99.90;;;;;;4144181;28;20091;-62
2022/09/15 08:23:58;;;;;;;24.88;8.52;;;18.40;99.90;;;;;;4146156;28;20025;-65
2022/09/15 08:25:59;;;;;;;24.80;8.60;;;18.50;99.90;;;;;;4145058;28;20467;-64
2022/09/15 08:28:00;;;;;;;22.67;7.85;;;18.50;99.90;;;;;;4146418;28;20058;-64
2022/09/15 08:30:02;;;;;;;21.77;9.25;;;18.60;99.90;;;;;;4144631;28;20045;-63
2022/09/15 08:32:03;;;;;;;25.27;6.93;;;18.70;99.90;;;;;;4145820;28;20049;-63
2022/09/15 08:34:05;;;;;;;17.67;4.88;;;18.80;99.90;;;;;;4144868;28;20165;-63
2022/09/15 08:36:12;;;;;;;7.03;1.85;;;19.00;99.90;;;;;;4145956;28;20360;-64
2022/09/15 08:38:13;;;;;;;5.88;1.85;;;19.20;99.90;;;;;;4144544;28;20034;-64
2022/09/15 08:40:33;;;;;;;4.05;1.10;;;19.50;99.90;;;;;;4145766;28;20038;-64
2022/09/15 08:42:34;;;;;;;1.52;1.00;;;19.80;99.90;;;;;;4144625;28;20026;-64
2022/09/15 08:44:48;;;;;;;3.47;0.98;;;20.10;99.90;;;;;;4145892;28;20030;-64
2022/09/15 08:47:01;;;;;;;2.33;0.90;;;20.30;99.90;;;;;;4144699;28;20095;-64
2022/09/15 08:49:36;;;;;;;2.92;0.80;;;20.40;99.90;;;;;;4146094;28;20096;-65
2022/09/15 08:51:49;;;;;;;2.08;1.08;;;20.60;99.90;;;;;;4143269;28;20426;-64
2022/09/15 08:53:59;;;;;;;2.85;1.00;;;20.70;99.90;;;;;;4144947;28;20502;-64
2022/09/15 08:56:04;;;;;;;3.78;1.45;;;20.90;99.90;;;;;;4141992;28;20521;-63
2022/09/15 08:58:09;;;;;;;1.17;0.75;;;21.00;99.90;;;;;;4145406;28;20355;-63
2022/09/15 09:00:15;;;;;;;0.52;0.52;;;21.10;99.90;;;;;;4144068;28;20026;-63
2022/09/15 09:02:28;;;;;;;2.50;1.38;;;21.20;99.90;;;;;;4147518;28;20045;-63
2022/09/15 09:04:47;;;;;;;3.53;1.10;;;21.30;99.90;;;;;;4160697;28;20049;-64
2022/09/15 09:07:04;;;;;;;3.83;0.80;;;21.40;99.90;;;;;;4156647;28;20478;-65
2022/09/15 09:09:30;;;;;;;4.68;0.90;;;21.50;99.90;;;;;;4127908;28;20140;-65
2022/09/15 09:11:34;;;;;;;1.30;0.70;;;21.60;99.90;;;;;;4129378;28;20085;-64
2022/09/15 09:13:56;;;;;;;3.50;0.90;;;21.70;99.90;;;;;;4143678;28;20076;-64
2022/09/15 09:16:37;;;;;;;2.20;0.90;;;21.80;99.90;;;;;;4144720;28;20034;-64
2022/09/15 09:18:55;;;;;;;1.58;0.57;;;21.90;99.90;;;;;;4142843;28;20560;-64
2022/09/15 09:21:11;;;;;;;2.30;0.65;;;22.00;99.90;;;;;;4143490;28;20037;-64
2022/09/15 09:23:15;;;;;;;1.98;0.95;;;22.10;99.90;;;;;;4145252;28;20393;-65
2022/09/15 09:25:19;;;;;;;5.65;1.23;;;22.20;99.90;;;;;;4144080;28;20042;-65
2022/09/15 09:27:25;;;;;;;1.25;0.70;;;22.10;99.90;;;;;;4144440;28;20038;-64
2022/09/15 09:29:38;;;;;;;1.48;0.95;;;22.20;99.90;;;;;;4144647;28;20026;-64
2022/09/15 09:31:40;;;;;;;1.33;0.63;;;22.20;99.90;;;;;;4144796;28;20041;-64
2022/09/15 09:34:17;;;;;;;4.32;0.95;;;22.20;99.90;;;;;;4144965;28;20025;-64
2022/09/15 09:36:18;;;;;;;3.28;0.70;;;22.30;99.90;;;;;;4135875;28;20117;-64
2022/09/15 09:38:33;;;;;;;4.82;0.50;;;22.30;99.90;;;;;;4144012;28;20088;-64
2022/09/15 09:40:38;;;;;;;3.08;0.75;;;22.40;99.90;;;;;;4154592;28;20025;-64
2022/09/15 09:42:39;;;;;;;1.55;0.90;;;22.40;99.90;;;;;;4138366;28;20042;-64
2022/09/15 09:44:41;;;;;;;5.20;1.10;;;22.50;99.90;;;;;;4142743;28;20429;-65
2022/09/15 09:46:42;;;;;;;5.10;0.80;;;22.60;99.90;;;;;;4143556;28;20429;-64
2022/09/15 09:48:59;;;;;;;1.85;0.73;;;22.70;99.90;;;;;;4144069;28;20478;-64
2022/09/15 09:51:01;;;;;;;2.50;0.65;;;22.80;99.90;;;;;;4143532;28;20046;-65
2022/09/15 09:53:32;;;;;;;2.63;0.63;;;22.90;99.90;;;;;;4147940;28;20099;-64
2022/09/15 09:55:33;;;;;;;0.68;0.57;;;23.00;99.90;;;;;;4148348;28;20521;-63
2022/09/15 09:57:35;;;;;;;4.32;1.65;;;23.10;99.90;;;;;;4143477;28;20054;-63
2022/09/15 09:59:40;;;;;;;1.30;0.80;;;23.20;99.90;;;;;;4143479;28;20445;-63
2022/09/15 10:02:10;;;;;;;2.97;0.52;;;23.20;99.90;;;;;;4142992;28;20379;-64
2022/09/15 10:04:17;;;;;;;0.70;0.30;;;23.40;99.90;;;;;;4140588;28;20061;-63
2022/09/15 10:06:21;;;;;;;1.58;0.50;;;23.40;99.90;;;;;;4143982;28;20045;-63
2022/09/15 10:08:22;;;;;;;1.27;0.60;;;23.40;99.90;;;;;;4146693;28;20034;-63
2022/09/15 10:10:31;;;;;;;1.08;0.50;;;23.30;99.90;;;;;;4146712;28;20874;-62
2022/09/15 10:12:38;;;;;;;2.35;0.60;;;23.30;99.90;;;;;;4147009;28;20018;-62
2022/09/15 10:14:40;;;;;;;3.80;0.30;;;23.30;99.90;;;;;;4145834;28;20808;-63
2022/09/15 10:16:42;;;;;;;4.32;0.40;;;23.40;99.90;;;;;;4146974;28;20355;-62
2022/09/15 10:18:44;;;;;;;3.30;0.65;;;23.40;99.90;;;;;;4146142;28;20037;-61
2022/09/15 10:20:50;;;;;;;1.17;0.40;;;23.50;99.90;;;;;;4147706;28;20042;-62
2022/09/15 10:22:51;;;;;;;1.10;0.30;;;23.50;99.90;;;;;;4147429;28;20092;-61
2022/09/15 10:24:53;;;;;;;1.35;0.60;;;23.60;99.90;;;;;;4148207;28;20080;-62
2022/09/15 10:27:30;;;;;;;0.70;0.43;;;23.60;99.90;;;;;;4146768;28;20504;-63
2022/09/15 10:29:38;;;;;;;2.67;0.65;;;23.70;99.90;;;;;;4135886;28;20072;-62
2022/09/15 10:31:41;;;;;;;3.28;0.43;;;23.70;99.90;;;;;;4146754;28;20433;-62
2022/09/15 10:33:44;;;;;;;1.10;0.47;;;23.80;99.90;;;;;;4147797;28;20092;-62
2022/09/15 10:35:45;;;;;;;1.75;0.60;;;23.80;99.90;;;;;;4146483;28;20079;-61
2022/09/15 10:38:07;;;;;;;5.80;0.95;;;24.00;99.90;;;;;;4147637;28;20042;-62
2022/09/15 10:40:27;;;;;;;1.85;0.70;;;24.10;99.90;;;;;;4146024;28;20034;-63
2022/09/15 10:42:46;;;;;;;1.70;0.40;;;24.30;99.90;;;;;;4147565;28;20068;-62